createdAt,value
2018-08-22T00:02:45.909Z,7.23
2018-08-22T00:08:40.907Z,7.59
2018-08-22T00:14:35.942Z,9.76
2018-08-22T00:20:30.911Z,7.74
2018-08-22T00:26:25.887Z,8.85
2018-08-22T00:32:20.892Z,8.45
2018-08-22T00:38:15.907Z,7.92
2018-08-22T00:44:10.915Z,8.57
2018-08-22T00:50:05.908Z,9.16
2018-08-22T00:56:00.968Z,9.04
2018-08-22T01:01:55.931Z,9.2
2018-08-22T01:07:50.944Z,8.12
2018-08-22T01:13:45.919Z,9.56
2018-08-22T01:19:40.941Z,9.14
2018-08-22T01:25:35.938Z,8.09
2018-08-22T01:31:30.940Z,9.03
2018-08-22T01:37:25.986Z,8.73
2018-08-22T01:43:20.966Z,13.88
2018-08-22T01:49:15.965Z,9.44
2018-08-22T01:55:10.934Z,8.16
2018-08-22T02:01:06.007Z,8.48
2018-08-22T02:07:00.997Z,9.87
2018-08-22T02:12:56.035Z,10.81
2018-08-22T02:18:51.014Z,8.5
2018-08-22T02:24:46.013Z,9.19
2018-08-22T02:30:41.009Z,10.38
2018-08-22T02:36:36.048Z,9.67
2018-08-22T02:42:31.123Z,9.62
2018-08-22T02:48:26.010Z,11.27
2018-08-22T02:54:21.011Z,9.46
2018-08-22T03:00:16.056Z,9.93
2018-08-22T03:06:11.072Z,10.21
2018-08-22T03:12:06.030Z,10.14
2018-08-22T03:18:01.029Z,10.58
2018-08-22T03:23:56.060Z,10.56
2018-08-22T03:29:51.071Z,9.51
2018-08-22T03:35:46.060Z,10.37
2018-08-22T03:41:41.123Z,9.34
2018-08-22T03:47:36.035Z,10.37
2018-08-22T03:53:31.094Z,9.83
2018-08-22T03:59:26.070Z,9.66
2018-08-22T04:05:21.107Z,12.67
2018-08-22T04:11:16.118Z,10.04
2018-08-22T04:17:11.084Z,11.18
2018-08-22T04:23:06.097Z,14.25
2018-08-22T04:29:01.083Z,9.73
2018-08-22T04:34:56.078Z,11.38
2018-08-22T04:40:51.097Z,10.48
2018-08-22T04:46:46.144Z,12.42
2018-08-22T04:52:41.155Z,11.65
2018-08-22T04:58:36.069Z,12.07
2018-08-22T05:04:31.122Z,15.28
2018-08-22T05:10:26.129Z,9.67
2018-08-22T05:16:21.112Z,9.97
2018-08-22T05:22:16.142Z,13.55
2018-08-22T05:28:11.212Z,10.19
2018-08-22T05:34:06.110Z,19.15
2018-08-22T05:40:01.187Z,9.8
2018-08-22T05:45:56.155Z,11.75
2018-08-22T05:51:51.137Z,9.93
2018-08-22T05:57:46.172Z,9.92
2018-08-22T06:03:41.189Z,14.03
2018-08-22T06:09:36.159Z,14.58
2018-08-22T06:15:31.172Z,12.7
2018-08-22T06:21:26.241Z,10.66
2018-08-22T06:27:21.193Z,13.76
2018-08-22T06:33:16.205Z,14.12
2018-08-22T06:39:11.187Z,14.8
2018-08-22T06:45:06.194Z,11.95
2018-08-22T06:51:01.192Z,11.45
2018-08-22T06:56:56.241Z,13.13
2018-08-22T07:02:51.252Z,11.54
2018-08-22T07:08:46.231Z,21.38
2018-08-22T07:14:41.207Z,12.9
2018-08-22T07:20:36.248Z,15.48
2018-08-22T07:26:31.219Z,11.72
2018-08-22T07:32:26.216Z,11.9
2018-08-22T07:38:21.247Z,11.43
2018-08-22T07:44:16.241Z,10.67
2018-08-22T07:50:11.290Z,10.8
2018-08-22T07:56:06.250Z,12.39
2018-08-22T08:02:01.400Z,10.4
2018-08-22T08:07:56.271Z,9.52
2018-08-22T08:13:51.320Z,8.94
2018-08-22T08:19:46.358Z,10.6
2018-08-22T08:25:41.324Z,8.48
2018-08-22T08:31:36.301Z,11.76
2018-08-22T08:37:31.357Z,8.59
2018-08-22T08:43:26.397Z,6.46
2018-08-22T08:49:21.357Z,7.13
2018-08-22T08:55:16.288Z,5.29
2018-08-22T09:01:11.330Z,5.19
2018-08-22T09:07:06.339Z,4.65
2018-08-22T09:13:01.310Z,5.25
2018-08-22T09:18:56.318Z,4.55
2018-08-22T09:24:51.324Z,4.44
2018-08-22T09:30:46.374Z,4.78
2018-08-22T09:36:41.337Z,4.8
2018-08-22T09:42:36.340Z,4.21
2018-08-22T09:48:31.359Z,4.35
2018-08-22T09:54:26.351Z,4.39
2018-08-22T10:00:21.372Z,4.36
2018-08-22T10:06:16.404Z,3.99
2018-08-22T10:12:11.388Z,3.77
2018-08-22T10:18:07.136Z,4.05
2018-08-22T10:24:01.397Z,3.84
2018-08-22T10:29:56.375Z,4.67
2018-08-22T10:35:51.504Z,3.92
2018-08-22T10:41:46.424Z,3.83
2018-08-22T10:47:41.413Z,3.94
2018-08-22T10:53:36.402Z,3.7
2018-08-22T10:59:31.409Z,3.82
2018-08-22T11:05:26.415Z,4
2018-08-22T11:11:21.441Z,3.98
2018-08-22T11:17:16.482Z,3.79
2018-08-22T11:23:11.475Z,3.83
2018-08-22T11:29:06.434Z,3.36
2018-08-22T11:35:01.447Z,3.68
2018-08-22T11:40:56.448Z,3.57
2018-08-22T11:46:51.526Z,3.63
2018-08-22T11:52:46.448Z,3.56
2018-08-22T11:58:41.478Z,3.88
2018-08-22T12:04:36.473Z,3.09
2018-08-22T12:10:31.581Z,2.97
2018-08-22T12:16:26.565Z,3.11
2018-08-22T12:22:21.477Z,3.39
2018-08-22T12:28:16.532Z,4.35
2018-08-22T12:34:11.506Z,4.81
2018-08-22T12:40:06.492Z,4.59
2018-08-22T12:46:01.529Z,4.7
2018-08-22T12:51:56.539Z,5.01
2018-08-22T12:57:51.537Z,5.05
2018-08-22T13:03:46.535Z,5.67
2018-08-22T13:09:41.532Z,5.62
2018-08-22T13:15:36.548Z,5.73
2018-08-22T13:21:31.683Z,5.77
2018-08-22T13:27:26.551Z,6.53
2018-08-22T13:33:21.550Z,7.49
2018-08-22T13:39:16.631Z,6.52
2018-08-22T13:45:11.610Z,13.3
2018-08-22T13:51:06.600Z,8.07
2018-08-22T13:57:01.573Z,6.81
2018-08-22T14:02:56.569Z,8.01
2018-08-22T14:08:51.643Z,12.21
2018-08-22T14:15:54.619Z,9.62
2018-08-22T14:21:49.613Z,8.13
2018-08-22T14:27:44.582Z,7.77
2018-08-22T14:33:39.688Z,6.06
2018-08-22T14:39:34.598Z,7.22
2018-08-22T14:45:29.599Z,7.98
2018-08-22T14:51:24.606Z,8.53
2018-08-22T14:57:19.649Z,8.39
2018-08-22T15:03:15.094Z,9.76
2018-08-22T15:09:09.642Z,7.89
2018-08-22T15:15:04.633Z,8.97
2018-08-22T15:20:59.630Z,9.62
2018-08-22T15:26:54.634Z,9.43
2018-08-22T15:32:49.631Z,9.73
2018-08-22T15:38:44.678Z,9.57
2018-08-22T15:44:39.679Z,10.34
2018-08-22T15:50:34.657Z,10.01
2018-08-22T15:56:29.664Z,10.42
2018-08-22T16:02:24.703Z,9.86
2018-08-22T16:08:19.714Z,10.4
2018-08-22T16:14:14.694Z,9.68
2018-08-22T16:20:09.703Z,14.5
2018-08-22T16:26:04.678Z,14.7
2018-08-22T16:31:59.684Z,11.3
2018-08-22T16:37:54.693Z,11.66
2018-08-22T16:43:49.696Z,11.73
2018-08-22T16:49:44.736Z,11.43
2018-08-22T16:55:39.691Z,9.85
2018-08-22T17:01:34.740Z,10.97
2018-08-22T17:07:29.726Z,11.16
2018-08-22T17:13:24.723Z,19.17
2018-08-22T17:19:21.625Z,11.47
2018-08-22T17:25:14.734Z,11.17
2018-08-22T17:31:09.736Z,10.18
2018-08-22T17:37:04.747Z,10.18
2018-08-22T17:42:59.737Z,13.46
2018-08-22T17:48:54.776Z,10.92
2018-08-22T17:54:49.754Z,10.87
2018-08-22T18:00:44.800Z,11.21
2018-08-22T18:06:39.781Z,13.08
2018-08-22T18:12:34.801Z,33.4
2018-08-22T18:18:29.817Z,15.33
2018-08-22T18:24:24.797Z,12.46
2018-08-22T18:30:19.812Z,14.27
2018-08-22T18:36:14.832Z,13.98
2018-08-22T18:42:09.851Z,12.47
2018-08-22T18:48:04.787Z,11.63
2018-08-22T18:53:59.800Z,14.12
2018-08-22T18:59:54.811Z,15.53
2018-08-22T19:05:49.895Z,10.62
2018-08-22T19:11:44.838Z,14.96
2018-08-22T19:17:39.826Z,14.49
2018-08-22T19:23:34.812Z,13.93
2018-08-22T19:29:29.843Z,13.23
2018-08-22T19:35:24.849Z,18.01
2018-08-22T19:41:19.846Z,15.66
2018-08-22T19:47:14.868Z,16.31
2018-08-22T19:53:09.849Z,14.09
2018-08-22T19:59:04.916Z,14.1
2018-08-22T20:04:59.897Z,12.87
2018-08-22T20:10:54.868Z,15.4
2018-08-22T20:16:49.919Z,11.31
2018-08-22T20:22:44.925Z,11.45
2018-08-22T20:28:39.876Z,14.09
2018-08-22T20:34:34.865Z,11.81
2018-08-22T20:40:29.887Z,15.23
2018-08-22T20:46:24.943Z,33.13
2018-08-22T20:52:19.920Z,12.91
2018-08-22T20:58:14.925Z,15.07
2018-08-22T21:04:09.940Z,13.32
2018-08-22T21:10:04.921Z,15.41
2018-08-22T21:15:59.920Z,12.34
2018-08-22T21:21:54.926Z,13.91
2018-08-22T21:27:49.952Z,14.46
2018-08-22T21:33:44.934Z,13.22
2018-08-22T21:39:39.939Z,13.37
2018-08-22T21:45:34.948Z,13.85
2018-08-22T21:51:29.974Z,14.67
2018-08-22T21:57:25.012Z,15.38
2018-08-22T22:03:19.964Z,11.91
2018-08-22T22:09:14.974Z,12.3
2018-08-22T22:15:09.993Z,12.43
2018-08-22T22:21:05.005Z,14.84
2018-08-22T22:26:59.986Z,12.48
2018-08-22T22:32:55.014Z,13.49
2018-08-22T22:38:50.012Z,12.64
2018-08-22T22:44:44.987Z,13.6
2018-08-22T22:50:39.999Z,13.16
2018-08-22T22:56:35.034Z,13.32
2018-08-22T23:02:30.038Z,16.36
2018-08-22T23:08:25.008Z,12.82
2018-08-22T23:14:20.029Z,17.24
2018-08-22T23:20:15.037Z,15.37
2018-08-22T23:26:10.037Z,13.5
2018-08-22T23:32:05.041Z,13.48
2018-08-22T23:38:00.027Z,13.65
2018-08-22T23:43:55.037Z,12.93
2018-08-22T23:49:50.051Z,13.29
2018-08-22T23:55:45.054Z,13.26
